Time;durP1;ratioP1;P1;durP2;ratioP2;P2;SDS_P1;SDS_P2;PMS_P1;PMS_P2;Temp;Humidity;BMP_temperature;BMP_pressure;BME280_temperature;BME280_humidity;BME280_pressure;Samples;Min_cycle;Max_cycle;Signal;HPM_P1;HPM_P2
2021/09/03 00:00:47;;;;;;;1.30;0.90;;;21.60;99.90;;;;;;20681564;28;20241;-72
2021/09/03 00:10:51;;;;;;;0.37;0.30;;;21.60;99.90;;;;;;20693734;28;20422;-71
2021/09/03 00:20:56;;;;;;;0.80;0.63;;;21.70;99.90;;;;;;20693088;28;20628;-72
2021/09/03 00:31:00;;;;;;;0.20;0.10;;;22.00;99.90;;;;;;20688274;28;20227;-71
2021/09/03 00:41:05;;;;;;;1.03;0.40;;;22.00;99.90;;;;;;20695713;28;20206;-73
2021/09/03 00:51:08;;;;;;;0.90;0.50;;;22.00;99.90;;;;;;20706735;28;21112;-72
2021/09/03 01:01:17;;;;;;;0.73;0.40;;;22.10;99.90;;;;;;20715317;23;20234;-65
2021/09/03 01:11:21;;;;;;;0.80;0.70;;;21.90;99.90;;;;;;20706257;28;20234;-65
2021/09/03 01:21:26;;;;;;;3.23;1.90;;;22.10;99.90;;;;;;20707335;28;20217;-66
2021/09/03 01:31:31;;;;;;;0.50;0.50;;;22.00;99.90;;;;;;20700062;28;20231;-64
2021/09/03 01:41:36;;;;;;;0.40;0.23;;;22.20;99.90;;;;;;20705012;28;20640;-65
2021/09/03 01:51:41;;;;;;;1.55;0.73;;;22.40;99.90;;;;;;20703917;28;20232;-66
2021/09/03 02:01:45;;;;;;;0.60;0.50;;;22.40;99.90;;;;;;20716016;23;20238;-71
2021/09/03 02:11:51;;;;;;;0.43;0.40;;;22.10;99.90;;;;;;20703687;28;20723;-69
2021/09/03 02:21:54;;;;;;;1.13;0.50;;;21.90;99.90;;;;;;20686537;28;20222;-73
2021/09/03 02:32:00;;;;;;;0.30;0.30;;;21.80;99.90;;;;;;20682890;28;20225;-72
2021/09/03 02:42:04;;;;;;;0.50;0.43;;;21.60;99.90;;;;;;20700509;28;20207;-73
2021/09/03 02:52:09;;;;;;;1.50;0.90;;;21.50;99.90;;;;;;20698317;28;20223;-74
2021/09/03 03:02:12;;;;;;;0.80;0.40;;;21.40;99.90;;;;;;20698603;28;20805;-74
2021/09/03 03:12:20;;;;;;;0.27;0.23;;;21.30;99.90;;;;;;20695932;28;20219;-73
2021/09/03 03:22:23;;;;;;;0.37;0.37;;;21.10;99.90;;;;;;20698810;28;20686;-72
2021/09/03 03:32:28;;;;;;;0.70;0.47;;;21.10;99.90;;;;;;20676845;28;20234;-72
2021/09/03 03:42:32;;;;;;;0.80;0.60;;;21.10;99.90;;;;;;20678086;28;20206;-72
2021/09/03 03:52:37;;;;;;;0.83;0.57;;;21.10;99.90;;;;;;20694632;28;20329;-73
2021/09/03 04:02:40;;;;;;;3.93;1.40;;;21.00;99.90;;;;;;20697156;28;20230;-73
2021/09/03 04:12:45;;;;;;;1.30;0.63;;;20.90;99.90;;;;;;20697770;28;20226;-73
2021/09/03 04:22:49;;;;;;;0.37;0.30;;;20.90;99.90;;;;;;20710508;28;20195;-73
2021/09/03 04:32:54;;;;;;;1.67;1.00;;;20.80;99.90;;;;;;20707807;28;20226;-72
2021/09/03 04:42:58;;;;;;;0.67;0.53;;;20.80;99.90;;;;;;20706833;28;20222;-72
2021/09/03 04:53:02;;;;;;;0.20;0.20;;;20.80;99.90;;;;;;20708553;28;20700;-73
2021/09/03 05:03:06;;;;;;;0.40;0.30;;;20.70;99.90;;;;;;20690674;28;20726;-73
2021/09/03 05:13:11;;;;;;;1.50;1.37;;;20.60;99.90;;;;;;20707392;28;21094;-72
2021/09/03 05:23:16;;;;;;;0.87;0.43;;;20.40;99.90;;;;;;20702147;28;20770;-73
2021/09/03 05:33:21;;;;;;;2.43;1.07;;;20.60;99.90;;;;;;20673415;28;20286;-73
2021/09/03 05:43:25;;;;;;;0.57;0.27;;;20.80;99.90;;;;;;20604230;28;20204;-73
2021/09/03 05:53:30;;;;;;;4.00;1.43;;;20.70;99.90;;;;;;20604838;28;21047;-74
2021/09/03 06:03:34;;;;;;;0.50;0.50;;;20.90;99.90;;;;;;20619843;28;20811;-73
2021/09/03 06:13:39;;;;;;;0.57;0.40;;;20.90;99.90;;;;;;20619513;28;20242;-73
2021/09/03 06:23:43;;;;;;;0.57;0.57;;;21.00;99.90;;;;;;20617184;28;20198;-72
2021/09/03 06:33:48;;;;;;;3.17;1.20;;;21.20;99.90;;;;;;20641270;28;20226;-73
2021/09/03 06:43:51;;;;;;;2.00;0.93;;;21.30;99.90;;;;;;20696483;28;20199;-72
2021/09/03 06:53:56;;;;;;;0.87;0.80;;;21.80;99.90;;;;;;20698516;28;20249;-73
2021/09/03 07:04:00;;;;;;;0.90;0.40;;;22.20;99.90;;;;;;20693623;28;20329;-72
2021/09/03 07:14:06;;;;;;;1.90;1.10;;;22.80;99.90;;;;;;20696223;28;20218;-73
2021/09/03 07:24:09;;;;;;;4.13;0.75;;;23.30;99.90;;;;;;20694454;28;20288;-72
2021/09/03 07:34:15;;;;;;;0.60;0.60;;;23.80;99.90;;;;;;20688086;28;20349;-71
2021/09/03 07:44:18;;;;;;;1.63;0.93;;;23.90;99.90;;;;;;20694956;28;20198;-77
2021/09/03 07:54:24;;;;;;;2.15;0.85;;;24.40;99.90;;;;;;20710750;28;20214;-72
2021/09/03 08:04:29;;;;;;;3.58;1.10;;;24.60;99.90;;;;;;20704963;28;20258;-72
2021/09/03 08:14:35;;;;;;;1.20;1.10;;;24.60;99.90;;;;;;20701860;28;20253;-72
2021/09/03 08:24:39;;;;;;;0.40;0.40;;;24.80;99.90;;;;;;20722945;28;20198;-71
2021/09/03 08:34:44;;;;;;;1.48;0.98;;;24.90;99.90;;;;;;20720079;28;20307;-69
2021/09/03 08:44:48;;;;;;;1.45;0.82;;;25.40;99.90;;;;;;20721573;28;20203;-71
2021/09/03 08:54:53;;;;;;;1.25;0.65;;;25.30;99.90;;;;;;20674285;28;20358;-71
2021/09/03 09:04:57;;;;;;;5.07;0.93;;;25.30;99.90;;;;;;20691009;28;20314;-72
2021/09/03 09:15:05;;;;;;;0.95;0.73;;;25.40;99.90;;;;;;20619827;28;20580;-72
2021/09/03 09:25:22;;;;;;;0.95;0.77;;;25.60;99.90;;;;;;20618049;28;20199;-70
2021/09/03 09:35:27;;;;;;;1.02;0.52;;;26.00;99.90;;;;;;20654676;28;20223;-70
2021/09/03 09:45:31;;;;;;;1.00;0.88;;;26.30;99.90;;;;;;20689505;28;20198;-70
2021/09/03 09:55:38;;;;;;;2.83;1.92;;;26.50;99.90;;;;;;20693633;28;20223;-70
2021/09/03 10:05:42;;;;;;;2.35;1.67;;;26.80;99.90;;;;;;20656806;28;1216775;-71
2021/09/03 10:15:47;;;;;;;1.60;0.68;;;27.00;99.90;;;;;;20690934;28;20686;-71
2021/09/03 10:25:52;;;;;;;8.07;1.05;;;27.70;99.90;;;;;;20679587;28;20527;-72
2021/09/03 10:35:57;;;;;;;2.30;0.70;;;27.70;99.90;;;;;;20694135;28;20229;-72
2021/09/03 10:46:01;;;;;;;0.73;0.50;;;27.50;99.90;;;;;;20690220;28;20194;-72
2021/09/03 10:56:18;;;;;;;5.13;1.63;;;28.60;99.90;;;;;;20693881;28;20224;-72
2021/09/03 11:06:29;;;;;;;1.52;1.10;;;29.30;99.90;;;;;;20694570;28;20250;-72
2021/09/03 11:16:37;;;;;;;4.80;0.93;;;29.90;99.90;;;;;;20678095;28;20234;-73
2021/09/03 11:26:42;;;;;;;2.70;0.95;;;30.40;99.90;;;;;;20690987;28;20463;-72
2021/09/03 11:36:48;;;;;;;2.10;1.17;;;30.60;99.90;;;;;;20692830;28;20717;-73
2021/09/03 11:46:52;;;;;;;1.25;1.10;;;30.80;99.90;;;;;;20688493;28;20966;-70
2021/09/03 11:56:59;;;;;;;0.82;0.57;;;30.90;99.90;;;;;;20692819;28;20653;-72
2021/09/03 12:07:02;;;;;;;1.58;1.00;;;31.20;99.90;;;;;;20692495;28;20801;-71
2021/09/03 12:17:07;;;;;;;1.92;1.33;;;31.60;99.90;;;;;;20690581;28;20313;-72
2021/09/03 12:27:13;;;;;;;0.88;0.70;;;31.70;99.90;;;;;;20692796;28;20203;-72
2021/09/03 12:37:18;;;;;;;1.52;1.05;;;32.10;99.90;;;;;;20697307;28;20232;-72
2021/09/03 12:47:22;;;;;;;7.28;1.58;;;32.70;99.90;;;;;;20699762;28;20199;-71
2021/09/03 12:57:27;;;;;;;0.88;0.60;;;30.60;99.90;;;;;;20704655;28;20219;-72
2021/09/03 13:07:31;;;;;;;4.03;1.15;;;28.90;99.90;;;;;;20703588;28;20227;-72
2021/09/03 13:17:36;;;;;;;1.10;0.70;;;27.60;99.90;;;;;;20704028;28;20227;-73
2021/09/03 13:27:40;;;;;;;7.68;4.18;;;27.30;99.90;;;;;;20704081;28;20191;-72
2021/09/03 13:37:45;;;;;;;2.63;1.60;;;27.10;99.90;;;;;;20684603;28;20230;-72
2021/09/03 13:47:56;;;;;;;2.22;0.85;;;26.90;99.90;;;;;;20696160;28;20656;-71
2021/09/03 13:58:02;;;;;;;0.40;0.40;;;26.60;99.90;;;;;;20686325;28;20241;-71
2021/09/03 14:08:05;;;;;;;4.55;0.88;;;26.40;99.90;;;;;;20698631;28;20586;-69
2021/09/03 14:18:11;;;;;;;1.13;0.85;;;26.20;99.90;;;;;;20698939;28;20663;-70
2021/09/03 14:28:15;;;;;;;1.70;0.50;;;26.30;99.90;;;;;;20697317;28;20207;-70
2021/09/03 14:38:20;;;;;;;3.60;1.75;;;27.00;99.90;;;;;;20695121;28;20218;-70
2021/09/03 14:48:23;;;;;;;2.58;0.88;;;32.30;99.90;;;;;;20691175;28;20207;-69
2021/09/03 14:58:29;;;;;;;6.55;1.75;;;33.00;99.90;;;;;;20693368;28;20225;-69
2021/09/03 15:08:33;;;;;;;1.55;1.23;;;32.90;99.90;;;;;;20693995;28;20250;-69
2021/09/03 15:18:39;;;;;;;1.00;0.90;;;33.50;99.90;;;;;;20692643;28;20232;-69
2021/09/03 15:28:42;;;;;;;7.20;1.35;;;32.40;99.90;;;;;;20693249;28;20195;-70
2021/09/03 15:38:47;;;;;;;2.08;1.88;;;33.90;99.90;;;;;;20687933;28;20226;-67
2021/09/03 15:48:51;;;;;;;4.80;1.17;;;30.80;99.90;;;;;;20684279;28;20221;-69
2021/09/03 15:58:56;;;;;;;3.22;1.23;;;28.90;99.90;;;;;;20688690;28;20226;-68
2021/09/03 16:09:00;;;;;;;0.93;0.80;;;28.50;99.90;;;;;;20690341;28;20333;-70
2021/09/03 16:19:05;;;;;;;1.13;0.57;;;27.70;99.90;;;;;;20705956;28;20222;-69
2021/09/03 16:29:09;;;;;;;1.97;1.03;;;27.40;99.90;;;;;;20703739;28;20440;-68
2021/09/03 16:39:13;;;;;;;3.65;1.00;;;27.20;99.90;;;;;;20704617;28;20230;-74
2021/09/03 16:49:17;;;;;;;3.75;2.53;;;26.60;99.90;;;;;;20708900;28;20199;-72
2021/09/03 16:59:23;;;;;;;4.40;2.20;;;26.40;99.90;;;;;;20705419;28;20233;-70
2021/09/03 17:09:27;;;;;;;2.00;1.02;;;26.30;99.90;;;;;;20625033;28;20680;-71
2021/09/03 17:19:32;;;;;;;1.48;0.95;;;26.20;99.90;;;;;;20622182;28;20231;-70
2021/09/03 17:29:36;;;;;;;2.92;1.23;;;25.80;99.90;;;;;;20622260;28;20200;-70
2021/09/03 17:39:41;;;;;;;2.08;0.73;;;25.20;99.90;;;;;;20622658;28;20231;-69
2021/09/03 17:49:45;;;;;;;1.45;0.50;;;25.70;99.90;;;;;;20621979;28;20527;-70
2021/09/03 17:59:50;;;;;;;2.88;1.13;;;26.20;99.90;;;;;;20621960;28;20251;-70
2021/09/03 18:09:54;;;;;;;1.73;1.23;;;25.80;99.90;;;;;;20617515;28;20376;-70
2021/09/03 18:19:59;;;;;;;2.78;1.42;;;25.60;99.90;;;;;;20608450;23;20247;-71
2021/09/03 18:30:03;;;;;;;0.88;0.63;;;25.50;99.90;;;;;;20536539;28;20761;-70
2021/09/03 18:40:09;;;;;;;1.95;1.52;;;25.30;99.90;;;;;;20536735;28;20243;-71
2021/09/03 18:50:13;;;;;;;1.08;0.60;;;25.20;99.90;;;;;;20532996;28;20562;-70
2021/09/03 19:00:19;;;;;;;1.15;0.75;;;25.00;99.90;;;;;;20530930;28;20509;-71
2021/09/03 19:10:23;;;;;;;4.60;0.73;;;24.80;99.90;;;;;;20531116;28;20196;-71
2021/09/03 19:20:29;;;;;;;1.25;0.60;;;25.10;99.90;;;;;;20551444;28;20231;-69
2021/09/03 19:30:33;;;;;;;0.20;0.13;;;24.60;99.90;;;;;;20611159;28;21101;-72
2021/09/03 19:40:39;;;;;;;0.52;0.30;;;24.10;99.90;;;;;;20610246;28;20223;-71
2021/09/03 19:50:43;;;;;;;1.10;0.52;;;23.80;99.90;;;;;;20593872;28;20342;-72
2021/09/03 20:01:03;;;;;;;2.70;1.42;;;23.70;99.90;;;;;;20611505;28;20215;-74
2021/09/03 20:11:07;;;;;;;0.20;0.17;;;23.60;99.90;;;;;;20607694;28;20195;-72
2021/09/03 20:21:12;;;;;;;0.30;0.20;;;23.70;99.90;;;;;;20611316;28;20239;-72
2021/09/03 20:31:16;;;;;;;0.70;0.35;;;23.40;99.90;;;;;;20613786;28;20209;-71
2021/09/03 20:41:21;;;;;;;0.40;0.30;;;23.50;99.90;;;;;;20592661;28;20227;-72
2021/09/03 20:51:27;;;;;;;0.40;0.30;;;23.50;99.90;;;;;;20613216;28;20191;-72
2021/09/03 21:01:32;;;;;;;1.65;0.73;;;23.20;99.90;;;;;;20624752;28;20823;-74
2021/09/03 21:11:35;;;;;;;0.80;0.63;;;23.00;99.90;;;;;;20626191;28;20227;-73
2021/09/03 21:21:40;;;;;;;0.23;0.23;;;22.80;99.90;;;;;;20623926;28;20235;-73
2021/09/03 21:31:44;;;;;;;9.35;0.68;;;23.00;99.90;;;;;;20602999;28;20198;-74
2021/09/03 21:41:49;;;;;;;0.30;0.30;;;23.10;99.90;;;;;;20619914;28;20656;-73
2021/09/03 21:51:53;;;;;;;0.37;0.30;;;22.90;99.90;;;;;;20626502;28;20210;-73
2021/09/03 22:01:58;;;;;;;0.95;0.85;;;22.60;99.90;;;;;;20622273;28;20226;-74
2021/09/03 22:12:02;;;;;;;0.53;0.53;;;22.50;99.90;;;;;;20620757;28;20258;-71
2021/09/03 22:22:08;;;;;;;0.60;0.60;;;22.20;99.90;;;;;;20616670;28;20364;-71
2021/09/03 22:32:11;;;;;;;0.63;0.50;;;22.20;99.90;;;;;;20616668;28;20676;-72
2021/09/03 22:42:16;;;;;;;1.23;0.50;;;22.10;99.90;;;;;;20596603;28;20290;-71
2021/09/03 22:52:20;;;;;;;0.40;0.40;;;22.30;99.90;;;;;;20615512;28;21095;-71
2021/09/03 23:02:26;;;;;;;0.73;0.43;;;22.30;99.90;;;;;;20594470;28;20219;-69
2021/09/03 23:12:30;;;;;;;2.63;0.67;;;22.10;99.90;;;;;;20614374;28;20298;-70
2021/09/03 23:22:35;;;;;;;0.40;0.40;;;22.10;99.90;;;;;;20610538;28;20455;-70
2021/09/03 23:32:39;;;;;;;0.30;0.30;;;22.20;99.90;;;;;;20612697;28;20192;-71
2021/09/03 23:42:45;;;;;;;1.50;0.70;;;22.20;99.90;;;;;;20612674;28;20219;-70
2021/09/03 23:52:48;;;;;;;0.97;0.43;;;22.10;99.90;;;;;;20638775;23;20376;-72
